sensor_id;sensor_type;location;lat;lon;timestamp;P1;durP1;ratioP1;P2;durP2;ratioP2
30301;SDS011;17111;52.130;5.028;2023-05-14T00:00:39;22.85;;;13.70;;
30301;SDS011;17111;52.130;5.028;2023-05-14T00:03:05;23.63;;;14.50;;
30301;SDS011;17111;52.130;5.028;2023-05-14T00:05:32;23.27;;;14.63;;
30301;SDS011;17111;52.130;5.028;2023-05-14T00:07:59;21.05;;;14.20;;
30301;SDS011;17111;52.130;5.028;2023-05-14T00:10:26;20.55;;;14.05;;
30301;SDS011;17111;52.130;5.028;2023-05-14T00:12:52;20.55;;;14.32;;
30301;SDS011;17111;52.130;5.028;2023-05-14T00:15:19;20.48;;;14.13;;
30301;SDS011;17111;52.130;5.028;2023-05-14T00:17:45;22.77;;;14.23;;
30301;SDS011;17111;52.130;5.028;2023-05-14T00:20:12;19.63;;;12.75;;
30301;SDS011;17111;52.130;5.028;2023-05-14T00:22:39;21.67;;;13.52;;
30301;SDS011;17111;52.130;5.028;2023-05-14T00:25:06;20.15;;;13.38;;
30301;SDS011;17111;52.130;5.028;2023-05-14T00:27:33;20.70;;;13.43;;
30301;SDS011;17111;52.130;5.028;2023-05-14T00:30:01;19.90;;;13.43;;
30301;SDS011;17111;52.130;5.028;2023-05-14T00:32:27;22.52;;;14.75;;
30301;SDS011;17111;52.130;5.028;2023-05-14T00:34:54;20.60;;;12.80;;
30301;SDS011;17111;52.130;5.028;2023-05-14T00:37:21;20.55;;;13.55;;
30301;SDS011;17111;52.130;5.028;2023-05-14T00:39:47;19.95;;;13.82;;
30301;SDS011;17111;52.130;5.028;2023-05-14T00:42:14;19.45;;;13.82;;
30301;SDS011;17111;52.130;5.028;2023-05-14T00:44:40;21.55;;;14.10;;
30301;SDS011;17111;52.130;5.028;2023-05-14T00:47:07;20.75;;;13.93;;
30301;SDS011;17111;52.130;5.028;2023-05-14T00:49:34;20.55;;;13.48;;
30301;SDS011;17111;52.130;5.028;2023-05-14T00:52:00;19.08;;;13.32;;
30301;SDS011;17111;52.130;5.028;2023-05-14T00:54:28;21.15;;;13.80;;
30301;SDS011;17111;52.130;5.028;2023-05-14T00:56:55;20.70;;;13.13;;
30301;SDS011;17111;52.130;5.028;2023-05-14T00:59:22;19.52;;;13.02;;
30301;SDS011;17111;52.130;5.028;2023-05-14T01:01:48;19.67;;;13.00;;
30301;SDS011;17111;52.130;5.028;2023-05-14T01:04:15;21.45;;;14.27;;
30301;SDS011;17111;52.130;5.028;2023-05-14T01:15:24;19.20;;;12.73;;
30301;SDS011;17111;52.130;5.028;2023-05-14T01:17:58;19.65;;;13.43;;
30301;SDS011;17111;52.130;5.028;2023-05-14T01:20:26;18.15;;;12.30;;
30301;SDS011;17111;52.130;5.028;2023-05-14T01:22:53;20.75;;;12.88;;
30301;SDS011;17111;52.130;5.028;2023-05-14T01:25:19;17.95;;;12.55;;
30301;SDS011;17111;52.130;5.028;2023-05-14T01:28:05;17.75;;;12.48;;
30301;SDS011;17111;52.130;5.028;2023-05-14T01:33:23;18.27;;;12.55;;
30301;SDS011;17111;52.130;5.028;2023-05-14T01:35:51;18.60;;;12.98;;
30301;SDS011;17111;52.130;5.028;2023-05-14T01:38:19;18.00;;;12.98;;
30301;SDS011;17111;52.130;5.028;2023-05-14T01:40:47;16.73;;;11.95;;
30301;SDS011;17111;52.130;5.028;2023-05-14T01:43:15;18.33;;;12.45;;
30301;SDS011;17111;52.130;5.028;2023-05-14T01:45:42;16.55;;;11.82;;
30301;SDS011;17111;52.130;5.028;2023-05-14T01:48:09;16.17;;;11.60;;
30301;SDS011;17111;52.130;5.028;2023-05-14T01:50:36;19.73;;;11.88;;
30301;SDS011;17111;52.130;5.028;2023-05-14T01:53:02;19.85;;;13.68;;
30301;SDS011;17111;52.130;5.028;2023-05-14T01:55:29;18.52;;;12.23;;
30301;SDS011;17111;52.130;5.028;2023-05-14T01:57:55;18.55;;;12.18;;
30301;SDS011;17111;52.130;5.028;2023-05-14T02:00:22;16.98;;;11.68;;
30301;SDS011;17111;52.130;5.028;2023-05-14T02:02:52;18.55;;;12.40;;
30301;SDS011;17111;52.130;5.028;2023-05-14T02:05:19;15.93;;;12.07;;
30301;SDS011;17111;52.130;5.028;2023-05-14T02:07:46;16.85;;;12.18;;
30301;SDS011;17111;52.130;5.028;2023-05-14T02:10:12;17.52;;;11.73;;
30301;SDS011;17111;52.130;5.028;2023-05-14T02:12:39;17.48;;;12.10;;
30301;SDS011;17111;52.130;5.028;2023-05-14T02:15:06;17.08;;;11.70;;
30301;SDS011;17111;52.130;5.028;2023-05-14T02:17:34;17.17;;;11.15;;
30301;SDS011;17111;52.130;5.028;2023-05-14T02:20:00;17.98;;;12.07;;
30301;SDS011;17111;52.130;5.028;2023-05-14T02:22:27;18.15;;;11.68;;
30301;SDS011;17111;52.130;5.028;2023-05-14T02:24:53;17.15;;;11.93;;
30301;SDS011;17111;52.130;5.028;2023-05-14T02:27:20;20.83;;;12.15;;
30301;SDS011;17111;52.130;5.028;2023-05-14T02:29:47;20.63;;;12.98;;
30301;SDS011;17111;52.130;5.028;2023-05-14T02:32:13;17.15;;;11.38;;
30301;SDS011;17111;52.130;5.028;2023-05-14T02:34:40;17.15;;;11.13;;
30301;SDS011;17111;52.130;5.028;2023-05-14T02:37:06;17.73;;;11.57;;
30301;SDS011;17111;52.130;5.028;2023-05-14T02:39:33;15.80;;;10.55;;
30301;SDS011;17111;52.130;5.028;2023-05-14T02:42:00;16.30;;;11.10;;
30301;SDS011;17111;52.130;5.028;2023-05-14T02:44:26;14.38;;;10.30;;
30301;SDS011;17111;52.130;5.028;2023-05-14T02:46:53;15.45;;;11.02;;
30301;SDS011;17111;52.130;5.028;2023-05-14T02:49:19;15.98;;;10.82;;
30301;SDS011;17111;52.130;5.028;2023-05-14T02:51:46;16.35;;;11.23;;
30301;SDS011;17111;52.130;5.028;2023-05-14T02:54:13;16.20;;;10.75;;
30301;SDS011;17111;52.130;5.028;2023-05-14T02:56:41;13.95;;;10.02;;
30301;SDS011;17111;52.130;5.028;2023-05-14T02:59:08;15.10;;;10.35;;
30301;SDS011;17111;52.130;5.028;2023-05-14T03:01:35;15.30;;;11.00;;
30301;SDS011;17111;52.130;5.028;2023-05-14T03:04:02;15.13;;;10.23;;
30301;SDS011;17111;52.130;5.028;2023-05-14T03:06:28;15.30;;;10.63;;
30301;SDS011;17111;52.130;5.028;2023-05-14T03:08:56;15.23;;;10.27;;
30301;SDS011;17111;52.130;5.028;2023-05-14T03:11:22;16.05;;;11.15;;
30301;SDS011;17111;52.130;5.028;2023-05-14T03:13:49;15.27;;;10.30;;
30301;SDS011;17111;52.130;5.028;2023-05-14T03:16:16;15.70;;;10.88;;
30301;SDS011;17111;52.130;5.028;2023-05-14T03:18:42;15.48;;;10.82;;
30301;SDS011;17111;52.130;5.028;2023-05-14T03:21:09;15.55;;;10.68;;
30301;SDS011;17111;52.130;5.028;2023-05-14T03:23:35;15.05;;;10.70;;
30301;SDS011;17111;52.130;5.028;2023-05-14T03:26:02;16.17;;;11.20;;
30301;SDS011;17111;52.130;5.028;2023-05-14T03:28:30;13.55;;;9.95;;
30301;SDS011;17111;52.130;5.028;2023-05-14T03:30:56;15.32;;;10.43;;
30301;SDS011;17111;52.130;5.028;2023-05-14T03:33:23;15.20;;;10.30;;
30301;SDS011;17111;52.130;5.028;2023-05-14T03:35:50;13.63;;;9.32;;
30301;SDS011;17111;52.130;5.028;2023-05-14T03:38:17;14.80;;;9.90;;
30301;SDS011;17111;52.130;5.028;2023-05-14T03:40:43;13.52;;;9.55;;
30301;SDS011;17111;52.130;5.028;2023-05-14T03:43:10;13.68;;;9.95;;
30301;SDS011;17111;52.130;5.028;2023-05-14T03:45:37;13.23;;;9.15;;
30301;SDS011;17111;52.130;5.028;2023-05-14T03:48:04;13.15;;;9.75;;
30301;SDS011;17111;52.130;5.028;2023-05-14T03:50:31;12.40;;;9.27;;
30301;SDS011;17111;52.130;5.028;2023-05-14T03:52:57;13.77;;;9.95;;
30301;SDS011;17111;52.130;5.028;2023-05-14T03:55:24;15.15;;;9.88;;
30301;SDS011;17111;52.130;5.028;2023-05-14T03:57:51;13.55;;;9.70;;
30301;SDS011;17111;52.130;5.028;2023-05-14T04:00:17;12.20;;;8.93;;
30301;SDS011;17111;52.130;5.028;2023-05-14T04:02:44;14.57;;;9.45;;
30301;SDS011;17111;52.130;5.028;2023-05-14T04:05:10;13.18;;;9.30;;
30301;SDS011;17111;52.130;5.028;2023-05-14T04:07:37;13.07;;;9.45;;
30301;SDS011;17111;52.130;5.028;2023-05-14T04:10:04;17.30;;;9.27;;
30301;SDS011;17111;52.130;5.028;2023-05-14T04:12:31;13.07;;;8.80;;
30301;SDS011;17111;52.130;5.028;2023-05-14T04:14:58;13.40;;;9.25;;
30301;SDS011;17111;52.130;5.028;2023-05-14T04:17:24;11.32;;;8.50;;
30301;SDS011;17111;52.130;5.028;2023-05-14T04:19:51;11.63;;;8.82;;
30301;SDS011;17111;52.130;5.028;2023-05-14T04:22:17;12.70;;;9.18;;
30301;SDS011;17111;52.130;5.028;2023-05-14T04:24:44;11.98;;;8.18;;
30301;SDS011;17111;52.130;5.028;2023-05-14T04:27:13;13.23;;;9.27;;
30301;SDS011;17111;52.130;5.028;2023-05-14T04:29:44;12.63;;;9.00;;
30301;SDS011;17111;52.130;5.028;2023-05-14T04:32:11;12.25;;;8.93;;
30301;SDS011;17111;52.130;5.028;2023-05-14T04:34:37;12.27;;;8.40;;
30301;SDS011;17111;52.130;5.028;2023-05-14T04:37:05;13.68;;;8.95;;
30301;SDS011;17111;52.130;5.028;2023-05-14T04:39:31;13.75;;;9.13;;
30301;SDS011;17111;52.130;5.028;2023-05-14T04:41:58;11.60;;;8.00;;
30301;SDS011;17111;52.130;5.028;2023-05-14T04:44:25;12.10;;;9.15;;
30301;SDS011;17111;52.130;5.028;2023-05-14T04:46:51;12.25;;;8.90;;
30301;SDS011;17111;52.130;5.028;2023-05-14T04:49:18;11.10;;;8.00;;
30301;SDS011;17111;52.130;5.028;2023-05-14T04:51:45;11.32;;;8.25;;
30301;SDS011;17111;52.130;5.028;2023-05-14T04:54:13;11.15;;;7.72;;
30301;SDS011;17111;52.130;5.028;2023-05-14T04:56:39;12.25;;;8.23;;
30301;SDS011;17111;52.130;5.028;2023-05-14T04:59:06;10.13;;;7.50;;
30301;SDS011;17111;52.130;5.028;2023-05-14T05:01:32;11.10;;;7.80;;
30301;SDS011;17111;52.130;5.028;2023-05-14T05:03:59;12.60;;;8.43;;
30301;SDS011;17111;52.130;5.028;2023-05-14T05:06:26;11.98;;;7.68;;
30301;SDS011;17111;52.130;5.028;2023-05-14T05:08:52;10.65;;;8.05;;
30301;SDS011;17111;52.130;5.028;2023-05-14T05:11:19;10.02;;;7.90;;
30301;SDS011;17111;52.130;5.028;2023-05-14T05:13:46;11.57;;;8.43;;
30301;SDS011;17111;52.130;5.028;2023-05-14T05:16:12;9.98;;;7.10;;
30301;SDS011;17111;52.130;5.028;2023-05-14T05:18:39;9.55;;;7.30;;
30301;SDS011;17111;52.130;5.028;2023-05-14T05:21:06;11.70;;;7.97;;
30301;SDS011;17111;52.130;5.028;2023-05-14T05:23:32;10.15;;;7.72;;
30301;SDS011;17111;52.130;5.028;2023-05-14T05:25:59;9.93;;;7.20;;
30301;SDS011;17111;52.130;5.028;2023-05-14T05:28:26;9.23;;;6.93;;
30301;SDS011;17111;52.130;5.028;2023-05-14T05:30:52;10.23;;;7.03;;
30301;SDS011;17111;52.130;5.028;2023-05-14T05:33:19;10.25;;;7.38;;
30301;SDS011;17111;52.130;5.028;2023-05-14T05:35:46;8.95;;;7.15;;
30301;SDS011;17111;52.130;5.028;2023-05-14T05:38:13;10.65;;;7.30;;
30301;SDS011;17111;52.130;5.028;2023-05-14T05:40:41;8.85;;;6.57;;
30301;SDS011;17111;52.130;5.028;2023-05-14T05:43:07;10.35;;;6.95;;
30301;SDS011;17111;52.130;5.028;2023-05-14T05:45:34;10.65;;;7.25;;
30301;SDS011;17111;52.130;5.028;2023-05-14T05:48:00;9.73;;;7.10;;
30301;SDS011;17111;52.130;5.028;2023-05-14T05:50:27;10.73;;;7.25;;
30301;SDS011;17111;52.130;5.028;2023-05-14T05:52:53;11.18;;;7.15;;
30301;SDS011;17111;52.130;5.028;2023-05-14T05:55:20;10.40;;;7.28;;
30301;SDS011;17111;52.130;5.028;2023-05-14T05:57:47;9.82;;;7.28;;
30301;SDS011;17111;52.130;5.028;2023-05-14T06:00:13;10.38;;;7.22;;
30301;SDS011;17111;52.130;5.028;2023-05-14T06:02:40;9.05;;;6.50;;
30301;SDS011;17111;52.130;5.028;2023-05-14T06:05:10;9.18;;;7.05;;
30301;SDS011;17111;52.130;5.028;2023-05-14T06:07:37;8.38;;;6.63;;
30301;SDS011;17111;52.130;5.028;2023-05-14T06:10:04;7.70;;;6.15;;
30301;SDS011;17111;52.130;5.028;2023-05-14T06:12:31;8.80;;;6.95;;
30301;SDS011;17111;52.130;5.028;2023-05-14T06:14:58;9.65;;;6.90;;
30301;SDS011;17111;52.130;5.028;2023-05-14T06:17:24;8.70;;;6.75;;
30301;SDS011;17111;52.130;5.028;2023-05-14T06:19:51;8.10;;;6.13;;
30301;SDS011;17111;52.130;5.028;2023-05-14T06:22:18;9.63;;;6.72;;
30301;SDS011;17111;52.130;5.028;2023-05-14T06:24:45;9.80;;;6.60;;
30301;SDS011;17111;52.130;5.028;2023-05-14T06:27:11;9.15;;;6.45;;
30301;SDS011;17111;52.130;5.028;2023-05-14T06:29:38;10.02;;;6.40;;
30301;SDS011;17111;52.130;5.028;2023-05-14T06:32:04;8.25;;;6.63;;
30301;SDS011;17111;52.130;5.028;2023-05-14T06:34:31;8.25;;;6.40;;
30301;SDS011;17111;52.130;5.028;2023-05-14T06:36:58;7.80;;;6.07;;
30301;SDS011;17111;52.130;5.028;2023-05-14T06:39:25;8.10;;;6.30;;
30301;SDS011;17111;52.130;5.028;2023-05-14T06:41:52;7.80;;;6.07;;
30301;SDS011;17111;52.130;5.028;2023-05-14T06:44:18;9.98;;;6.50;;
30301;SDS011;17111;52.130;5.028;2023-05-14T06:46:45;9.63;;;6.53;;
30301;SDS011;17111;52.130;5.028;2023-05-14T06:49:11;8.73;;;6.20;;
30301;SDS011;17111;52.130;5.028;2023-05-14T06:51:38;8.93;;;6.53;;
30301;SDS011;17111;52.130;5.028;2023-05-14T06:54:06;7.80;;;5.95;;
30301;SDS011;17111;52.130;5.028;2023-05-14T06:56:33;9.50;;;6.32;;
30301;SDS011;17111;52.130;5.028;2023-05-14T06:59:00;11.05;;;7.55;;
30301;SDS011;17111;52.130;5.028;2023-05-14T07:01:26;9.60;;;7.50;;
30301;SDS011;17111;52.130;5.028;2023-05-14T07:03:53;10.35;;;7.18;;
30301;SDS011;17111;52.130;5.028;2023-05-14T07:06:20;10.75;;;7.53;;
30301;SDS011;17111;52.130;5.028;2023-05-14T07:08:46;12.32;;;8.30;;
30301;SDS011;17111;52.130;5.028;2023-05-14T07:11:13;12.73;;;8.32;;
30301;SDS011;17111;52.130;5.028;2023-05-14T07:13:40;13.68;;;9.00;;
30301;SDS011;17111;52.130;5.028;2023-05-14T07:16:07;16.20;;;10.13;;
30301;SDS011;17111;52.130;5.028;2023-05-14T07:18:36;16.73;;;9.98;;
30301;SDS011;17111;52.130;5.028;2023-05-14T07:21:03;14.38;;;10.20;;
30301;SDS011;17111;52.130;5.028;2023-05-14T07:23:32;16.17;;;10.40;;
30301;SDS011;17111;52.130;5.028;2023-05-14T07:26:01;17.35;;;9.98;;
30301;SDS011;17111;52.130;5.028;2023-05-14T07:28:28;25.70;;;10.70;;
30301;SDS011;17111;52.130;5.028;2023-05-14T07:30:54;17.67;;;11.32;;
30301;SDS011;17111;52.130;5.028;2023-05-14T07:33:21;19.65;;;11.00;;
30301;SDS011;17111;52.130;5.028;2023-05-14T07:35:48;17.02;;;11.10;;
30301;SDS011;17111;52.130;5.028;2023-05-14T07:38:15;23.88;;;11.75;;
30301;SDS011;17111;52.130;5.028;2023-05-14T07:40:42;20.48;;;11.18;;
30301;SDS011;17111;52.130;5.028;2023-05-14T07:43:09;22.77;;;11.73;;
30301;SDS011;17111;52.130;5.028;2023-05-14T07:45:36;17.48;;;10.73;;
30301;SDS011;17111;52.130;5.028;2023-05-14T07:48:04;21.35;;;11.20;;
30301;SDS011;17111;52.130;5.028;2023-05-14T07:50:31;18.63;;;10.88;;
30301;SDS011;17111;52.130;5.028;2023-05-14T07:52:57;34.35;;;20.40;;
30301;SDS011;17111;52.130;5.028;2023-05-14T07:55:24;31.50;;;16.33;;
30301;SDS011;17111;52.130;5.028;2023-05-14T07:57:51;66.28;;;39.15;;
30301;SDS011;17111;52.130;5.028;2023-05-14T08:00:17;64.10;;;35.38;;
30301;SDS011;17111;52.130;5.028;2023-05-14T08:02:44;44.33;;;24.70;;
30301;SDS011;17111;52.130;5.028;2023-05-14T08:05:11;45.72;;;25.48;;
30301;SDS011;17111;52.130;5.028;2023-05-14T08:07:38;41.33;;;23.08;;
30301;SDS011;17111;52.130;5.028;2023-05-14T08:10:04;39.75;;;23.75;;
30301;SDS011;17111;52.130;5.028;2023-05-14T08:12:33;42.80;;;23.23;;
30301;SDS011;17111;52.130;5.028;2023-05-14T08:14:59;39.10;;;20.63;;
30301;SDS011;17111;52.130;5.028;2023-05-14T08:17:26;37.38;;;21.00;;
30301;SDS011;17111;52.130;5.028;2023-05-14T08:19:52;39.75;;;21.08;;
30301;SDS011;17111;52.130;5.028;2023-05-14T08:22:19;38.08;;;20.38;;
30301;SDS011;17111;52.130;5.028;2023-05-14T08:24:46;34.45;;;19.65;;
30301;SDS011;17111;52.130;5.028;2023-05-14T08:27:14;35.28;;;19.13;;
30301;SDS011;17111;52.130;5.028;2023-05-14T08:29:41;33.08;;;18.42;;
30301;SDS011;17111;52.130;5.028;2023-05-14T08:32:08;31.38;;;16.38;;
30301;SDS011;17111;52.130;5.028;2023-05-14T08:34:48;29.00;;;17.00;;
30301;SDS011;17111;52.130;5.028;2023-05-14T08:37:14;29.20;;;17.80;;
30301;SDS011;17111;52.130;5.028;2023-05-14T08:39:41;32.30;;;17.05;;
30301;SDS011;17111;52.130;5.028;2023-05-14T08:42:08;30.23;;;17.17;;
30301;SDS011;17111;52.130;5.028;2023-05-14T08:44:38;32.22;;;15.68;;
30301;SDS011;17111;52.130;5.028;2023-05-14T08:47:14;32.65;;;13.50;;
30301;SDS011;17111;52.130;5.028;2023-05-14T08:49:43;23.42;;;13.73;;
30301;SDS011;17111;52.130;5.028;2023-05-14T08:52:12;35.75;;;15.38;;
30301;SDS011;17111;52.130;5.028;2023-05-14T08:54:39;22.85;;;13.13;;
30301;SDS011;17111;52.130;5.028;2023-05-14T08:57:07;23.75;;;13.80;;
30301;SDS011;17111;52.130;5.028;2023-05-14T08:59:35;28.60;;;13.15;;
30301;SDS011;17111;52.130;5.028;2023-05-14T09:02:01;40.92;;;13.52;;
30301;SDS011;17111;52.130;5.028;2023-05-14T09:04:31;50.03;;;15.05;;
30301;SDS011;17111;52.130;5.028;2023-05-14T09:07:00;131.18;;;19.77;;
30301;SDS011;17111;52.130;5.028;2023-05-14T09:09:27;85.70;;;16.83;;
30301;SDS011;17111;52.130;5.028;2023-05-14T09:11:54;61.85;;;14.77;;
30301;SDS011;17111;52.130;5.028;2023-05-14T09:14:21;42.05;;;13.50;;
30301;SDS011;17111;52.130;5.028;2023-05-14T09:16:49;35.03;;;13.05;;
30301;SDS011;17111;52.130;5.028;2023-05-14T09:19:17;41.55;;;13.18;;
30301;SDS011;17111;52.130;5.028;2023-05-14T09:21:45;41.92;;;13.02;;
30301;SDS011;17111;52.130;5.028;2023-05-14T09:24:22;41.15;;;12.10;;
30301;SDS011;17111;52.130;5.028;2023-05-14T09:26:53;89.25;;;52.80;;
30301;SDS011;17111;52.130;5.028;2023-05-14T09:29:25;57.35;;;31.45;;
30301;SDS011;17111;52.130;5.028;2023-05-14T09:31:53;49.35;;;25.35;;
30301;SDS011;17111;52.130;5.028;2023-05-14T09:34:24;36.42;;;17.65;;
30301;SDS011;17111;52.130;5.028;2023-05-14T09:36:59;30.83;;;14.07;;
30301;SDS011;17111;52.130;5.028;2023-05-14T09:39:27;24.15;;;12.60;;
30301;SDS011;17111;52.130;5.028;2023-05-14T09:41:54;20.52;;;10.98;;
30301;SDS011;17111;52.130;5.028;2023-05-14T09:44:22;29.42;;;13.65;;
30301;SDS011;17111;52.130;5.028;2023-05-14T09:46:50;27.38;;;13.75;;
30301;SDS011;17111;52.130;5.028;2023-05-14T09:49:18;31.30;;;14.02;;
30301;SDS011;17111;52.130;5.028;2023-05-14T09:51:44;26.25;;;13.73;;
30301;SDS011;17111;52.130;5.028;2023-05-14T09:54:11;23.60;;;12.80;;
30301;SDS011;17111;52.130;5.028;2023-05-14T09:56:38;21.63;;;12.13;;
30301;SDS011;17111;52.130;5.028;2023-05-14T09:59:05;21.85;;;11.05;;
30301;SDS011;17111;52.130;5.028;2023-05-14T10:01:31;25.13;;;12.27;;
30301;SDS011;17111;52.130;5.028;2023-05-14T10:03:58;23.38;;;11.10;;
30301;SDS011;17111;52.130;5.028;2023-05-14T10:06:29;23.42;;;10.20;;
30301;SDS011;17111;52.130;5.028;2023-05-14T10:09:02;29.38;;;9.80;;
30301;SDS011;17111;52.130;5.028;2023-05-14T10:11:32;20.38;;;10.25;;
30301;SDS011;17111;52.130;5.028;2023-05-14T10:14:03;22.33;;;9.80;;
30301;SDS011;17111;52.130;5.028;2023-05-14T10:16:34;19.95;;;9.43;;
30301;SDS011;17111;52.130;5.028;2023-05-14T10:19:04;17.38;;;10.00;;
30301;SDS011;17111;52.130;5.028;2023-05-14T10:21:35;17.08;;;9.20;;
30301;SDS011;17111;52.130;5.028;2023-05-14T10:24:03;22.83;;;8.40;;
30301;SDS011;17111;52.130;5.028;2023-05-14T10:26:31;29.02;;;8.30;;
30301;SDS011;17111;52.130;5.028;2023-05-14T10:28:58;14.00;;;7.20;;
30301;SDS011;17111;52.130;5.028;2023-05-14T10:34:31;15.88;;;7.32;;
30301;SDS011;17111;52.130;5.028;2023-05-14T10:37:00;17.10;;;7.55;;
30301;SDS011;17111;52.130;5.028;2023-05-14T10:39:43;18.52;;;8.23;;
30301;SDS011;17111;52.130;5.028;2023-05-14T10:42:22;22.00;;;8.25;;
30301;SDS011;17111;52.130;5.028;2023-05-14T10:44:54;33.40;;;9.30;;
30301;SDS011;17111;52.130;5.028;2023-05-14T10:47:27;29.52;;;9.77;;
30301;SDS011;17111;52.130;5.028;2023-05-14T10:49:55;28.63;;;10.40;;
30301;SDS011;17111;52.130;5.028;2023-05-14T10:52:24;29.00;;;9.13;;
30301;SDS011;17111;52.130;5.028;2023-05-14T10:54:52;16.42;;;7.53;;
30301;SDS011;17111;52.130;5.028;2023-05-14T10:57:21;16.65;;;7.15;;
30301;SDS011;17111;52.130;5.028;2023-05-14T10:59:50;20.23;;;8.93;;
30301;SDS011;17111;52.130;5.028;2023-05-14T11:05:04;27.10;;;7.93;;
30301;SDS011;17111;52.130;5.028;2023-05-14T11:07:34;26.10;;;9.10;;
30301;SDS011;17111;52.130;5.028;2023-05-14T11:12:36;17.27;;;7.03;;
30301;SDS011;17111;52.130;5.028;2023-05-14T11:15:05;15.45;;;6.95;;
30301;SDS011;17111;52.130;5.028;2023-05-14T11:17:34;19.95;;;7.03;;
30301;SDS011;17111;52.130;5.028;2023-05-14T11:20:02;16.10;;;6.40;;
30301;SDS011;17111;52.130;5.028;2023-05-14T11:22:33;11.20;;;6.40;;
30301;SDS011;17111;52.130;5.028;2023-05-14T11:25:00;10.32;;;4.75;;
30301;SDS011;17111;52.130;5.028;2023-05-14T11:27:27;10.98;;;5.60;;
30301;SDS011;17111;52.130;5.028;2023-05-14T11:29:54;18.02;;;6.28;;
30301;SDS011;17111;52.130;5.028;2023-05-14T11:32:23;14.40;;;5.43;;
30301;SDS011;17111;52.130;5.028;2023-05-14T11:34:51;12.98;;;5.45;;
30301;SDS011;17111;52.130;5.028;2023-05-14T11:37:18;10.50;;;5.00;;
30301;SDS011;17111;52.130;5.028;2023-05-14T11:39:46;13.70;;;5.28;;
30301;SDS011;17111;52.130;5.028;2023-05-14T11:42:20;10.55;;;5.05;;
30301;SDS011;17111;52.130;5.028;2023-05-14T11:44:48;11.57;;;4.80;;
30301;SDS011;17111;52.130;5.028;2023-05-14T11:47:17;18.27;;;5.05;;
30301;SDS011;17111;52.130;5.028;2023-05-14T11:49:45;12.02;;;4.50;;
30301;SDS011;17111;52.130;5.028;2023-05-14T11:52:13;11.48;;;4.97;;
30301;SDS011;17111;52.130;5.028;2023-05-14T11:54:41;11.98;;;4.47;;
30301;SDS011;17111;52.130;5.028;2023-05-14T11:57:10;8.05;;;3.88;;
30301;SDS011;17111;52.130;5.028;2023-05-14T11:59:38;10.15;;;4.38;;
30301;SDS011;17111;52.130;5.028;2023-05-14T12:02:07;10.02;;;4.30;;
30301;SDS011;17111;52.130;5.028;2023-05-14T12:04:36;8.50;;;3.92;;
30301;SDS011;17111;52.130;5.028;2023-05-14T12:07:06;9.50;;;3.70;;
30301;SDS011;17111;52.130;5.028;2023-05-14T12:09:35;8.10;;;3.85;;
30301;SDS011;17111;52.130;5.028;2023-05-14T12:12:10;10.00;;;3.83;;
30301;SDS011;17111;52.130;5.028;2023-05-14T12:14:38;10.20;;;3.92;;
30301;SDS011;17111;52.130;5.028;2023-05-14T12:17:19;6.65;;;3.60;;
30301;SDS011;17111;52.130;5.028;2023-05-14T12:19:48;16.33;;;3.88;;
30301;SDS011;17111;52.130;5.028;2023-05-14T12:22:17;7.93;;;3.25;;
30301;SDS011;17111;52.130;5.028;2023-05-14T12:24:54;9.63;;;4.03;;
30301;SDS011;17111;52.130;5.028;2023-05-14T12:27:25;9.38;;;4.18;;
30301;SDS011;17111;52.130;5.028;2023-05-14T12:30:00;16.30;;;4.25;;
30301;SDS011;17111;52.130;5.028;2023-05-14T12:32:46;9.05;;;4.03;;
30301;SDS011;17111;52.130;5.028;2023-05-14T12:35:17;7.75;;;4.07;;
30301;SDS011;17111;52.130;5.028;2023-05-14T12:37:43;7.85;;;3.72;;
30301;SDS011;17111;52.130;5.028;2023-05-14T12:40:10;7.47;;;4.00;;
30301;SDS011;17111;52.130;5.028;2023-05-14T12:42:37;10.77;;;4.00;;
30301;SDS011;17111;52.130;5.028;2023-05-14T12:45:03;10.40;;;5.28;;
30301;SDS011;17111;52.130;5.028;2023-05-14T12:47:33;9.13;;;4.50;;
30301;SDS011;17111;52.130;5.028;2023-05-14T12:50:00;11.65;;;4.50;;
30301;SDS011;17111;52.130;5.028;2023-05-14T12:52:27;12.73;;;4.80;;
30301;SDS011;17111;52.130;5.028;2023-05-14T12:55:03;7.88;;;4.07;;
30301;SDS011;17111;52.130;5.028;2023-05-14T12:57:30;13.68;;;5.50;;
30301;SDS011;17111;52.130;5.028;2023-05-14T12:59:57;15.07;;;4.60;;
30301;SDS011;17111;52.130;5.028;2023-05-14T13:02:24;10.75;;;4.70;;
30301;SDS011;17111;52.130;5.028;2023-05-14T13:04:50;10.98;;;4.45;;
30301;SDS011;17111;52.130;5.028;2023-05-14T13:07:17;11.57;;;4.13;;
30301;SDS011;17111;52.130;5.028;2023-05-14T13:09:43;8.73;;;4.68;;
30301;SDS011;17111;52.130;5.028;2023-05-14T13:12:10;11.25;;;4.53;;
30301;SDS011;17111;52.130;5.028;2023-05-14T13:14:37;9.65;;;4.30;;
30301;SDS011;17111;52.130;5.028;2023-05-14T13:17:03;8.05;;;4.47;;
30301;SDS011;17111;52.130;5.028;2023-05-14T13:19:30;9.07;;;5.10;;
30301;SDS011;17111;52.130;5.028;2023-05-14T13:21:57;9.30;;;4.30;;
30301;SDS011;17111;52.130;5.028;2023-05-14T13:24:23;12.38;;;4.25;;
30301;SDS011;17111;52.130;5.028;2023-05-14T13:26:50;13.30;;;4.80;;
30301;SDS011;17111;52.130;5.028;2023-05-14T13:29:16;8.20;;;4.75;;
30301;SDS011;17111;52.130;5.028;2023-05-14T13:31:43;19.02;;;9.40;;
30301;SDS011;17111;52.130;5.028;2023-05-14T13:34:09;15.05;;;7.15;;
30301;SDS011;17111;52.130;5.028;2023-05-14T13:36:36;15.25;;;6.35;;
30301;SDS011;17111;52.130;5.028;2023-05-14T13:39:05;17.17;;;6.57;;
30301;SDS011;17111;52.130;5.028;2023-05-14T13:41:32;15.70;;;6.25;;
30301;SDS011;17111;52.130;5.028;2023-05-14T13:44:00;18.65;;;7.90;;
30301;SDS011;17111;52.130;5.028;2023-05-14T13:46:27;14.65;;;7.13;;
30301;SDS011;17111;52.130;5.028;2023-05-14T13:48:54;15.63;;;6.20;;
30301;SDS011;17111;52.130;5.028;2023-05-14T13:51:21;12.23;;;5.88;;
30301;SDS011;17111;52.130;5.028;2023-05-14T13:53:48;12.77;;;5.63;;
30301;SDS011;17111;52.130;5.028;2023-05-14T13:56:15;12.45;;;5.13;;
30301;SDS011;17111;52.130;5.028;2023-05-14T13:58:42;8.90;;;4.55;;
30301;SDS011;17111;52.130;5.028;2023-05-14T14:01:09;10.13;;;5.05;;
30301;SDS011;17111;52.130;5.028;2023-05-14T14:03:36;12.70;;;5.75;;
30301;SDS011;17111;52.130;5.028;2023-05-14T14:06:02;14.75;;;4.53;;
30301;SDS011;17111;52.130;5.028;2023-05-14T14:08:29;8.70;;;4.13;;
30301;SDS011;17111;52.130;5.028;2023-05-14T14:10:56;10.48;;;4.10;;
30301;SDS011;17111;52.130;5.028;2023-05-14T14:13:22;15.52;;;4.43;;
30301;SDS011;17111;52.130;5.028;2023-05-14T14:15:49;9.30;;;4.25;;
30301;SDS011;17111;52.130;5.028;2023-05-14T14:18:16;7.55;;;4.03;;
30301;SDS011;17111;52.130;5.028;2023-05-14T14:20:43;8.55;;;3.92;;
30301;SDS011;17111;52.130;5.028;2023-05-14T14:23:09;14.95;;;5.40;;
30301;SDS011;17111;52.130;5.028;2023-05-14T14:25:36;11.90;;;4.18;;
30301;SDS011;17111;52.130;5.028;2023-05-14T14:28:02;8.38;;;3.33;;
30301;SDS011;17111;52.130;5.028;2023-05-14T14:30:29;8.55;;;3.60;;
30301;SDS011;17111;52.130;5.028;2023-05-14T14:32:56;9.07;;;3.80;;
30301;SDS011;17111;52.130;5.028;2023-05-14T14:35:22;8.10;;;3.90;;
30301;SDS011;17111;52.130;5.028;2023-05-14T14:37:49;6.00;;;3.38;;
30301;SDS011;17111;52.130;5.028;2023-05-14T14:40:18;7.68;;;3.38;;
30301;SDS011;17111;52.130;5.028;2023-05-14T14:42:45;7.85;;;3.58;;
30301;SDS011;17111;52.130;5.028;2023-05-14T14:45:12;6.10;;;3.22;;
30301;SDS011;17111;52.130;5.028;2023-05-14T14:47:41;10.10;;;5.15;;
30301;SDS011;17111;52.130;5.028;2023-05-14T14:50:11;7.30;;;4.10;;
30301;SDS011;17111;52.130;5.028;2023-05-14T14:52:38;9.77;;;3.70;;